Time;durP1;ratioP1;P1;durP2;ratioP2;P2;SDS_P1;SDS_P2;PMS_P1;PMS_P2;Temp;Humidity;BMP_temperature;BMP_pressure;BME280_temperature;BME280_humidity;BME280_pressure;Samples;Min_cycle;Max_cycle;Signal;HPM_P1;HPM_P2
2022/02/20 00:02:16;;;;;;;;;;;;;;;;;;;;;
2022/02/20 00:06:03;;;;;;;;;;;;;;;;;;;;;
2022/02/20 00:09:36;;;;;;;;;;;;;;;;;;;;;
2022/02/20 00:14:38;;;;;;;;;;;;;;;;;;;;;
2022/02/20 00:19:16;;;;;;;;;;;;;;;;;;;;;
2022/02/20 00:22:18;;;;;;;12.00;6.70;;;;;;;3.76;50.04;100064.82;108141;1284;21988;-77
2022/02/20 00:25:47;;;;;;;;;;;;;;;;;;;;;
2022/02/20 00:28:42;;;;;;;;;;;;;;;3.63;49.93;100050.77;104219;1280;21992;-76
2022/02/20 00:32:10;;;;;;;;;;;;;;;;;;;;;
2022/02/20 00:35:34;;;;;;;10.40;5.80;;;;;;;3.50;50.19;100042.58;107868;1286;22018;-77
2022/02/20 00:38:50;;;;;;;;;;;;;;;;;;;;;
2022/02/20 00:42:28;;;;;;;;;;;;;;;;;;;;;
2022/02/20 00:45:34;;;;;;;13.10;6.00;;;;;;;3.55;50.21;100023.76;106858;1296;22034;-77
2022/02/20 00:48:34;;;;;;;;;;;;;;;;;;;;;
2022/02/20 00:51:38;;;;;;;;;;;;;;;;;;;;;
2022/02/20 00:55:29;;;;;;;;;;;;;;;;;;;;;
2022/02/20 00:58:42;;;;;;;12.00;5.50;;;;;;;3.57;49.88;99998.30;108412;1276;23102;-77
2022/02/20 01:02:20;;;;;;;10.70;6.00;;;;;;;3.59;49.89;99996.64;108452;1276;21988;-77
2022/02/20 01:05:55;;;;;;;;;;;;;;;;;;;;;
2022/02/20 01:09:21;;;;;;;10.60;6.60;;;;;;;3.62;49.95;99997.25;108122;1282;23664;-77
2022/02/20 01:13:00;;;;;;;12.50;6.20;;;;;;;3.62;49.79;99987.46;108045;1283;22146;-76
2022/02/20 01:17:02;;;;;;;14.90;6.80;;;;;;;3.61;49.68;99976.73;108381;1273;23302;-75
2022/02/20 01:21:05;;;;;;;19.20;8.40;;;;;;;3.58;49.60;99971.97;108450;1276;22424;-76
2022/02/20 01:24:22;;;;;;;;;;;;;;;;;;;;;
2022/02/20 01:28:11;;;;;;;25.20;11.60;;;;;;;3.52;49.90;99971.73;108801;1270;22006;-77
2022/02/20 01:35:15;;;;;;;;;;;;;;;;;;;;;
2022/02/20 01:38:26;;;;;;;19.30;9.10;;;;;;;3.38;50.24;99950.32;108591;1273;22062;-76
2022/02/20 01:41:20;;;;;;;18.60;8.80;;;;;;;3.35;50.34;99946.41;108701;1264;22038;-77
2022/02/20 01:45:03;;;;;;;;;;;;;;;;;;;;;
2022/02/20 01:48:45;;;;;;;;;;;;;;;;;;;;;
2022/02/20 01:51:49;;;;;;;19.30;9.20;;;;;;;3.25;50.77;99928.98;108432;1276;24189;-76
2022/02/20 01:54:57;;;;;;;16.10;8.50;;;;;;;3.23;51.00;99925.19;108405;1276;22074;-76
2022/02/20 01:58:45;;;;;;;;;;;;;;;;;;;;;
2022/02/20 02:02:19;;;;;;;19.90;10.70;;;;;;;3.15;51.33;99912.98;108057;1283;22023;-77
2022/02/20 02:05:44;;;;;;;;;;;;;;;;;;;;;
2022/02/20 02:09:21;;;;;;;;;;;;;;;;;;;;;
2022/02/20 02:13:27;;;;;;;16.50;9.40;;;;;;;3.22;51.85;99901.35;107368;1289;548282;-77
2022/02/20 02:17:33;;;;;;;;;;;;;;;;;;;;;
2022/02/20 02:21:09;;;;;;;;;;;;;;;;;;;;;
2022/02/20 02:25:35;;;;;;;;;;;;;;;;;;;;;
2022/02/20 02:29:07;;;;;;;13.10;6.60;;;;;;;3.14;52.48;99865.70;107040;1268;22957;-75
2022/02/20 02:32:36;;;;;;;14.60;7.40;;;;;;;3.15;52.46;99860.45;108082;1282;22226;-76
2022/02/20 02:36:18;;;;;;;;;;;;;;;;;;;;;
2022/02/20 02:40:45;;;;;;;18.10;7.40;;;;;;;3.24;52.65;99851.25;107852;1286;22987;-76
2022/02/20 02:44:22;;;;;;;;;;;;;;;;;;;;;
2022/02/20 02:58:35;;;;;;;12.60;7.00;;;;;;;4.68;49.28;99843.27;107331;1288;548448;-76
2022/02/20 03:02:02;;;;;;;;;;;;;;;;;;;;;
2022/02/20 03:05:35;;;;;;;11.40;5.30;;;;;;;4.39;48.93;99834.07;109398;1265;21979;-75
2022/02/20 03:10:02;;;;;;;9.70;5.00;;;;;;;4.21;49.51;99833.58;108834;1271;22041;-76
2022/02/20 03:12:45;;;;;;;10.80;6.00;;;;;;;4.13;49.97;99828.77;108090;1282;22041;-77
2022/02/20 03:15:29;;;;;;;13.50;6.00;;;;;;;4.13;50.22;99815.38;107726;1282;23615;-77
2022/02/20 03:18:06;;;;;;;11.90;4.90;;;;;;;4.13;50.20;99801.12;107706;1283;23072;-76
2022/02/20 03:21:16;;;;;;;12.60;4.80;;;;;;;4.10;50.23;99801.48;108132;1276;23121;-76
2022/02/20 03:24:10;;;;;;;198.10;134.20;;;;;;;4.06;50.49;99805.53;107853;1283;22000;-77
2022/02/20 03:27:21;;;;;;;;;;;;;;;;;;;;;
2022/02/20 03:30:34;;;;;;;;;;;;;;;;;;;;;
2022/02/20 03:33:30;;;;;;;13.40;8.10;;;;;;;3.97;50.61;99794.67;108049;1282;22013;-76
2022/02/20 03:41:04;;;;;;;;;;;;;;;;;;;;;
2022/02/20 03:43:52;;;;;;;13.50;6.70;;;;;;;3.84;51.07;99777.55;108182;1279;24410;-75
2022/02/20 03:47:17;;;;;;;;;;;;;;;;;;;;;
2022/02/20 03:50:28;;;;;;;;;;;;;;;;;;;;;
2022/02/20 03:54:06;;;;;;;13.90;6.10;;;;;;;3.84;51.21;99773.61;109222;1267;22776;-75
2022/02/20 03:57:00;;;;;;;11.10;5.20;;;;;;;3.86;51.23;99766.98;109021;1267;21999;-76
2022/02/20 04:00:44;;;;;;;;;;;;;;;;;;;;;
2022/02/20 04:03:55;;;;;;;11.30;5.30;;;;;;;3.92;51.33;99754.90;109132;1265;23201;-77
2022/02/20 04:08:02;;;;;;;;;;;;;;;;;;;;;
2022/02/20 04:10:41;;;;;;;14.30;6.80;;;;;;;3.86;51.16;99742.36;108271;1277;23061;-76
2022/02/20 04:14:35;;;;;;;;;;;;;;;;;;;;;
2022/02/20 04:18:24;;;;;;;;;;;;;;;;;;;;;
2022/02/20 04:21:50;;;;;;;15.80;6.40;;;;;;;3.80;51.74;99732.80;107652;1288;23083;-76
2022/02/20 04:25:00;;;;;;;14.60;6.80;;;;;;;3.79;51.69;99726.96;107614;1288;22007;-76
2022/02/20 04:28:40;;;;;;;;;;;;;;;;;;;;;
2022/02/20 04:31:54;;;;;;;;;;;;;;;;;;;;;
2022/02/20 04:35:01;;;;;;;;;;;;;;;;;;;;;
2022/02/20 04:37:40;;;;;;;12.50;5.80;;;;;;;3.72;51.87;99699.17;107631;1288;22032;-76
2022/02/20 04:41:25;;;;;;;;;;;;;;;;;;;;;
2022/02/20 04:44:40;;;;;;;;;;;;;;;;;;;;;
2022/02/20 04:48:10;;;;;;;9.50;5.20;;;;;;;3.74;52.24;99682.15;108074;1279;22800;-76
2022/02/20 04:50:43;;;;;;;8.70;4.00;;;;;;;3.77;52.40;99679.06;107349;1289;23745;-76
2022/02/20 04:54:02;;;;;;;;;;;;;;;;;;;;;
2022/02/20 04:58:10;;;;;;;;;;;;;;;;;;;;;
2022/02/20 05:01:42;;;;;;;11.30;4.00;;;;;;;3.89;52.86;99643.37;108429;1276;23005;-77
2022/02/20 05:05:25;;;;;;;;;;;;;;;;;;;;;
2022/02/20 05:09:23;;;;;;;;;;;;;;;;;;;;;
2022/02/20 05:13:38;;;;;;;14.60;7.70;;;;;;;4.06;53.01;99636.15;109111;1269;23707;-75
2022/02/20 05:17:11;;;;;;;;;;;;;;;;;;;;;
2022/02/20 05:21:08;;;;;;;;;;;;;;;;;;;;;
2022/02/20 05:24:49;;;;;;;12.70;5.60;;;;;;;4.05;53.07;99616.27;108170;1276;23072;-77
2022/02/20 05:28:16;;;;;;;;;;;;;;;;;;;;;
2022/02/20 05:32:16;;;;;;;10.70;4.50;;;;;;;4.06;53.15;99603.79;109029;1270;21996;-77
2022/02/20 05:36:07;;;;;;;;;;;;;;;;;;;;;
2022/02/20 05:39:51;;;;;;;;;;;;;;;;;;;;;
2022/02/20 05:43:42;;;;;;;;;;;;;;;;;;;;;
2022/02/20 05:46:40;;;;;;;6.90;4.00;;;;;;;4.03;53.26;99595.29;108431;1276;21993;-76
2022/02/20 05:50:15;;;;;;;8.20;3.40;;;;;;;4.03;53.36;99592.89;108197;1279;23586;-76
2022/02/20 05:53:02;;;;;;;7.90;3.60;;;;;;;4.02;53.34;99589.52;107751;1285;23857;-77
2022/02/20 05:56:01;;;;;;;6.80;3.60;;;;;;;4.02;53.59;99590.02;108003;1285;23801;-79
2022/02/20 05:59:33;;;;;;;7.20;3.60;;;;;;;3.99;53.68;99593.79;107731;1285;23784;-77
2022/02/20 06:03:17;;;;;;;;;;;;;;;;;;;;;
2022/02/20 06:07:44;;;;;;;;;;;;;;;;;;;;;
2022/02/20 06:11:37;;;;;;;;;;;;;;;;;;;;;
2022/02/20 06:14:53;;;;;;;8.80;4.00;;;;;;;3.77;55.76;99572.61;107860;1283;23089;-75
2022/02/20 06:18:47;;;;;;;;;;;;;;;;;;;;;
2022/02/20 06:21:43;;;;;;;8.10;3.90;;;;;;;3.91;56.23;99570.15;107893;1283;22863;-77
2022/02/20 06:24:41;;;;;;;10.40;5.40;;;;;;;3.94;56.17;99570.92;107832;1279;23911;-77
2022/02/20 06:27:35;;;;;;;10.60;4.90;;;;;;;3.94;56.43;99572.49;108162;1279;23831;-77
2022/02/20 06:30:32;;;;;;;9.60;3.80;;;;;;;3.93;56.57;99574.50;108316;1279;23667;-76
2022/02/20 06:33:20;;;;;;;10.00;4.20;;;;;;;3.90;56.58;99571.09;108288;1279;22065;-76
2022/02/20 06:37:16;;;;;;;;;;;;;;;;;;;;;
2022/02/20 06:39:57;;;;;;;16.00;10.30;;;;;;;3.80;57.03;99571.17;107939;1282;22005;-76
2022/02/20 06:43:14;;;;;;;9.70;5.40;;;;;;;3.77;57.36;99572.50;108089;1281;22032;-77
2022/02/20 06:46:06;;;;;;;6.70;3.70;;;;;;;3.75;57.60;99570.98;107529;1282;22077;-78
2022/02/20 06:49:46;;;;;;;8.20;4.80;;;;;;;3.66;58.05;99570.17;108508;1276;23059;-76
2022/02/20 06:53:18;;;;;;;6.10;4.30;;;;;;;3.61;58.99;99568.29;108425;1276;21996;-77
2022/02/20 06:56:22;;;;;;;6.20;3.60;;;;;;;3.62;59.62;99564.15;108561;1273;22007;-78
2022/02/20 06:59:16;;;;;;;6.10;3.50;;;;;;;3.69;60.14;99560.73;108582;1273;22000;-78
2022/02/20 07:02:11;;;;;;;7.00;4.90;;;;;;;3.76;60.63;99561.12;108550;1273;23693;-77
2022/02/20 07:05:26;;;;;;;5.80;3.70;;;;;;;3.79;60.81;99559.77;108406;1276;22017;-76
2022/02/20 07:08:41;;;;;;;8.20;4.60;;;;;;;3.73;61.12;99558.94;108259;1280;22024;-75
2022/02/20 07:12:09;;;;;;;7.90;5.30;;;;;;;3.68;61.57;99557.44;108044;1279;22551;-78
2022/02/20 07:16:00;;;;;;;6.60;4.60;;;;;;;3.69;61.93;99559.29;107877;1282;23147;-76
2022/02/20 07:19:27;;;;;;;;;;;;;;;;;;;;;
2022/02/20 07:24:00;;;;;;;7.70;5.70;;;;;;;3.57;62.57;99562.70;108783;1269;21998;-77
2022/02/20 07:28:37;;;;;;;;;;;;;;;;;;;;;
2022/02/20 07:33:10;;;;;;;;;;;;;;;;;;;;;
2022/02/20 07:37:34;;;;;;;;;;;;;;;;;;;;;
2022/02/20 07:41:31;;;;;;;;;;;;;;;;;;;;;
2022/02/20 07:45:06;;;;;;;11.30;8.00;;;;;;;3.37;64.96;99561.47;107047;1288;22090;-77
2022/02/20 07:48:35;;;;;;;;;;;;;;;;;;;;;
2022/02/20 08:06:28;;;;;;;;;;;;;;;;;;;;;
2022/02/20 08:29:02;;;;;;;12.60;9.40;;;;;;;5.36;64.14;99548.36;107405;1243;23033;-77
2022/02/20 08:33:05;;;;;;;;;;;;;;;;;;;;;
2022/02/20 08:41:40;;;;;;;;;;;;;;;;;;;;;
2022/02/20 08:48:30;;;;;;;17.40;12.70;;;;;;;4.50;66.89;99560.19;106621;1298;22190;-76
2022/02/20 08:51:58;;;;;;;;;;;;;;;;;;;;;
2022/02/20 09:06:20;;;;;;;11.30;7.80;;;;;;;6.08;64.62;99573.14;108655;1273;548225;-76
2022/02/20 09:09:44;;;;;;;;;;;;;;;;;;;;;
2022/02/20 09:14:08;;;;;;;9.20;7.90;;;;;;;5.85;65.06;99587.27;110812;1251;21988;-77
2022/02/20 09:18:11;;;;;;;;;;;;;;;;;;;;;
2022/02/20 09:22:21;;;;;;;;;;;;;;;;;;;;;
2022/02/20 09:26:25;;;;;;;15.10;8.60;;;;;;;5.35;66.18;99601.93;108928;1269;21982;-76
2022/02/20 09:30:38;;;;;;;;;;;;;;;;;;;;;
2022/02/20 09:33:58;;;;;;;;;;;;;;;;;;;;;
2022/02/20 09:37:37;;;;;;;;;;;;;;;;;;;;;
2022/02/20 09:44:52;;;;;;;12.10;8.90;;;;;;;5.19;67.35;99622.36;109728;1259;21996;-76
2022/02/20 09:48:50;;;;;;;;;;;;;;;;;;;;;
2022/02/20 09:51:32;;;;;;;;;;;;;;;;;;;;;
2022/02/20 09:54:18;;;;;;;11.60;8.30;;;;;;;5.31;67.84;99626.09;109848;1260;22871;-77
2022/02/20 09:56:53;;;;;;;7.60;6.10;;;;;;;5.33;67.84;99632.98;110003;1257;22124;-76
2022/02/20 09:59:26;;;;;;;8.90;6.10;;;;;;;5.35;67.79;99633.66;109853;1259;22019;-76
2022/02/20 10:02:09;;;;;;;10.00;6.50;;;;;;;5.37;67.86;99638.61;109932;1259;21979;-76
2022/02/20 10:04:58;;;;;;;;;;;;;;;5.38;68.02;99638.68;109678;1259;21980;-76
2022/02/20 10:07:56;;;;;;;8.20;5.90;;;;;;;5.28;67.85;99638.90;110542;1251;23655;-76
2022/02/20 10:10:28;;;;;;;7.10;5.50;;;;;;;5.23;67.86;99636.84;110937;1250;21965;-76
2022/02/20 10:13:13;;;;;;;7.90;5.70;;;;;;;5.24;67.99;99637.56;110579;1253;22975;-77
2022/02/20 10:15:54;;;;;;;7.30;5.10;;;;;;;5.28;68.00;99642.46;110634;1253;22770;-78
2022/02/20 10:19:02;;;;;;;9.40;5.40;;;;;;;5.31;68.16;99644.02;110006;1256;21992;-75
2022/02/20 10:21:56;;;;;;;9.30;5.80;;;;;;;5.34;68.29;99642.49;110330;1253;22020;-75
2022/02/20 10:24:25;;;;;;;7.40;4.80;;;;;;;5.37;68.24;99641.52;111141;1247;23774;-75
2022/02/20 10:27:11;;;;;;;8.50;5.20;;;;;;;5.42;68.27;99639.77;110925;1251;23039;-76
2022/02/20 10:30:15;;;;;;;9.20;6.10;;;;;;;5.49;68.35;99639.11;111010;1251;22891;-76
2022/02/20 10:32:44;;;;;;;6.40;4.90;;;;;;;5.54;68.21;99639.54;110902;1251;23025;-76
2022/02/20 10:35:18;;;;;;;8.00;5.70;;;;;;;5.58;68.19;99640.89;110297;1257;22057;-76
2022/02/20 10:37:59;;;;;;;7.10;5.90;;;;;;;5.62;68.19;99640.98;110646;1251;22477;-76
2022/02/20 10:40:39;;;;;;;7.90;5.10;;;;;;;5.68;68.21;99644.44;111014;1248;22035;-76
2022/02/20 10:43:33;;;;;;;6.50;4.30;;;;;;;5.77;68.21;99646.59;111163;1247;22013;-77
2022/02/20 10:46:17;;;;;;;4.60;3.50;;;;;;;5.83;67.90;99647.39;111044;1246;22010;-76
2022/02/20 10:48:52;;;;;;;7.30;4.50;;;;;;;5.89;67.97;99647.73;110909;1250;21980;-76
2022/02/20 10:51:38;;;;;;;7.40;4.90;;;;;;;6.00;68.09;99648.87;110787;1245;22417;-76
2022/02/20 10:54:40;;;;;;;7.30;5.80;;;;;;;6.11;67.94;99650.40;111094;1246;22214;-76
2022/02/20 10:57:49;;;;;;;6.30;4.80;;;;;;;6.33;68.40;99649.66;111199;1248;22002;-76
2022/02/20 11:01:00;;;;;;;7.80;4.90;;;;;;;6.60;67.94;99657.80;111164;1248;23005;-76
2022/02/20 11:03:48;;;;;;;6.50;4.30;;;;;;;6.71;66.99;99662.23;110882;1248;22832;-76
2022/02/20 11:06:24;;;;;;;4.20;3.40;;;;;;;6.70;66.26;99665.30;111002;1245;24375;-75
2022/02/20 11:09:00;;;;;;;5.00;3.30;;;;;;;6.66;65.84;99669.45;111484;1242;23746;-75
2022/02/20 11:11:41;;;;;;;6.00;3.20;;;;;;;6.60;65.60;99668.13;111693;1238;23583;-76
2022/02/20 11:14:18;;;;;;;3.90;2.80;;;;;;;6.58;65.80;99671.31;111961;1239;23691;-76
2022/02/20 11:16:55;;;;;;;3.90;3.30;;;;;;;7.04;67.25;99675.75;111921;1239;21958;-77
2022/02/20 11:19:34;;;;;;;3.80;2.40;;;;;;;7.41;65.69;99675.31;111868;1238;23800;-76
2022/02/20 11:22:08;;;;;;;3.30;2.70;;;;;;;7.52;64.30;99675.21;112098;1238;23049;-75
2022/02/20 11:24:52;;;;;;;5.50;4.00;;;;;;;7.46;63.49;99678.14;111902;1239;22072;-75
2022/02/20 11:27:45;;;;;;;7.50;5.70;;;;;;;7.34;63.10;99672.97;112030;1238;23015;-75
2022/02/20 11:30:38;;;;;;;6.30;4.10;;;;;;;7.20;63.00;99673.25;111851;1238;21961;-76
2022/02/20 11:33:23;;;;;;;6.90;4.80;;;;;;;7.03;63.06;99673.55;111553;1245;22015;-76
2022/02/20 11:39:16;;;;;;;3.50;3.00;;;;;;;6.79;63.35;99682.75;110726;1249;23050;-77
2022/02/20 11:42:20;;;;;;;;;;;;;;;;;;;;;
2022/02/20 11:45:31;;;;;;;4.50;3.10;;;;;;;6.67;63.53;99685.89;111140;1247;22190;-77
2022/02/20 11:48:16;;;;;;;3.90;3.00;;;;;;;6.59;63.47;99688.20;111128;1245;22025;-77
2022/02/20 11:51:20;;;;;;;4.90;3.50;;;;;;;6.53;63.60;99692.48;111474;1242;23417;-76
2022/02/20 11:54:31;;;;;;;4.30;3.20;;;;;;;6.50;63.74;99689.11;111503;1242;22433;-75
2022/02/20 11:57:18;;;;;;;5.20;3.70;;;;;;;6.47;63.82;99692.52;111928;1236;24345;-76
2022/02/20 12:00:17;;;;;;;6.90;4.70;;;;;;;6.53;64.46;99692.11;111574;1242;23073;-76
2022/02/20 12:03:32;;;;;;;6.70;4.60;;;;;;;6.68;64.78;99691.72;111584;1242;23609;-76
2022/02/20 12:06:55;;;;;;;6.00;4.90;;;;;;;6.81;64.44;99691.98;111091;1248;21964;-76
2022/02/20 12:11:05;;;;;;;;;;;;;;;;;;;;;
2022/02/20 12:14:16;;;;;;;7.00;5.50;;;;;;;6.88;64.06;99685.21;109308;1262;21986;-75
2022/02/20 12:17:15;;;;;;;5.90;4.80;;;;;;;6.91;64.05;99679.58;109023;1267;23713;-76
2022/02/20 12:21:02;;;;;;;6.50;5.00;;;;;;;6.96;64.07;99680.98;109065;1266;22105;-78
2022/02/20 12:24:04;;;;;;;6.20;4.40;;;;;;;6.99;63.76;99677.39;108877;1268;22020;-76
2022/02/20 12:27:47;;;;;;;7.50;5.30;;;;;;;6.99;63.78;99675.75;108936;1268;22576;-77
2022/02/20 12:30:31;;;;;;;7.80;4.70;;;;;;;7.03;63.72;99680.00;108694;1271;21994;-76
2022/02/20 12:34:27;;;;;;;5.60;4.10;;;;;;;7.12;63.68;99678.56;109186;1267;21958;-76
2022/02/20 12:37:53;;;;;;;10.00;6.10;;;;;;;7.20;63.43;99674.04;108469;1274;23613;-76
2022/02/20 12:40:34;;;;;;;6.00;4.60;;;;;;;7.23;63.08;99674.27;108722;1270;23817;-76
2022/02/20 12:43:41;;;;;;;;;;;;;;;;;;;;;
2022/02/20 12:46:47;;;;;;;6.70;5.30;;;;;;;7.29;63.04;99671.56;108929;1270;22167;-76
2022/02/20 12:49:29;;;;;;;10.80;8.30;;;;;;;7.33;62.99;99674.98;108792;1268;22007;-75
2022/02/20 12:52:35;;;;;;;7.60;6.40;;;;;;;7.34;62.72;99675.44;109397;1262;23066;-76
2022/02/20 12:56:22;;;;;;;7.90;6.20;;;;;;;7.32;62.56;99670.32;109662;1262;23776;-76
2022/02/20 12:59:12;;;;;;;6.30;5.20;;;;;;;7.30;62.31;99673.56;109812;1259;22932;-76
2022/02/20 13:02:07;;;;;;;10.10;7.30;;;;;;;7.24;62.19;99674.52;110702;1251;23049;-76
2022/02/20 13:05:20;;;;;;;7.90;6.50;;;;;;;7.22;62.38;99669.41;110733;1251;21983;-76
2022/02/20 13:08:11;;;;;;;7.70;5.30;;;;;;;7.24;62.67;99668.36;111140;1247;24296;-75
2022/02/20 13:11:10;;;;;;;11.40;6.80;;;;;;;7.27;62.67;99669.46;110620;1251;22049;-77
2022/02/20 13:14:18;;;;;;;9.80;5.60;;;;;;;7.29;62.69;99672.25;111092;1247;23172;-75
2022/02/20 13:16:57;;;;;;;10.70;7.30;;;;;;;7.34;62.97;99668.18;110697;1251;22976;-77
2022/02/20 13:20:03;;;;;;;;;;;;;;;;;;;;;
2022/02/20 13:22:51;;;;;;;16.60;12.20;;;;;;;7.41;62.72;99662.86;110158;1259;22178;-77
2022/02/20 13:26:20;;;;;;;17.40;12.00;;;;;;;7.37;62.71;99662.11;110201;1256;21999;-76
2022/02/20 13:29:48;;;;;;;27.30;19.20;;;;;;;7.36;62.94;99659.23;110585;1250;23070;-76
2022/02/20 13:33:04;;;;;;;17.90;11.80;;;;;;;7.37;62.77;99656.65;110799;1250;23340;-76
2022/02/20 13:36:16;;;;;;;9.40;6.70;;;;;;;7.31;62.65;99648.70;110789;1250;21987;-77
2022/02/20 13:39:37;;;;;;;9.20;7.10;;;;;;;7.27;62.72;99651.02;110653;1254;24316;-76
2022/02/20 13:43:23;;;;;;;5.80;4.70;;;;;;;7.28;63.04;99644.79;111278;1247;21983;-77
2022/02/20 13:46:03;;;;;;;7.30;5.10;;;;;;;7.35;63.36;99639.20;110963;1251;22002;-76
2022/02/20 13:48:55;;;;;;;;;;;;;;;;;;;;;
2022/02/20 13:51:47;;;;;;;;;;;;;;;7.42;62.90;99637.73;110930;1251;21962;-77
2022/02/20 13:54:37;;;;;;;8.50;5.70;;;;;;;7.33;62.92;99634.71;110857;1247;24484;-76
2022/02/20 13:57:32;;;;;;;7.90;5.80;;;;;;;7.26;62.96;99632.28;111219;1248;22040;-76
2022/02/20 14:00:23;;;;;;;8.00;4.80;;;;;;;7.23;62.97;99632.28;110575;1254;22895;-76
2022/02/20 14:03:00;;;;;;;11.90;7.90;;;;;;;7.21;63.05;99624.23;110715;1253;23673;-77
2022/02/20 14:05:54;;;;;;;9.10;6.20;;;;;;;7.21;63.16;99620.52;110987;1250;23023;-76
2022/02/20 14:08:48;;;;;;;7.70;5.80;;;;;;;7.22;63.12;99616.65;111035;1248;21969;-76
2022/02/20 14:11:46;;;;;;;10.20;6.00;;;;;;;7.22;63.26;99613.66;111267;1247;22003;-77
2022/02/20 14:14:39;;;;;;;7.10;4.50;;;;;;;7.24;63.32;99610.92;110589;1253;22436;-75
2022/02/20 14:17:29;;;;;;;;;;;;;;;;;;;;;
2022/02/20 14:20:37;;;;;;;7.20;4.20;;;;;;;7.26;62.81;99598.52;111344;1245;22288;-75
2022/02/20 14:23:46;;;;;;;8.40;5.10;;;;;;;7.21;62.74;99593.42;111135;1248;23833;-76
2022/02/20 14:26:51;;;;;;;;;;;;;;;;;;;;;
2022/02/20 14:29:36;;;;;;;9.70;4.20;;;;;;;7.14;62.31;99590.33;111002;1247;21965;-76
2022/02/20 14:32:42;;;;;;;;;;;;;;;;;;;;;
2022/02/20 14:36:09;;;;;;;8.60;6.20;;;;;;;7.00;62.06;99584.46;111056;1248;22826;-76
2022/02/20 14:38:58;;;;;;;8.80;7.10;;;;;;;6.96;61.94;99583.64;111050;1248;21965;-76
2022/02/20 14:41:49;;;;;;;;;;;;;;;;;;;;;
2022/02/20 14:44:32;;;;;;;8.90;6.70;;;;;;;7.01;62.13;99573.33;111378;1245;23572;-76
2022/02/20 14:47:20;;;;;;;15.80;10.20;;;;;;;7.06;62.20;99571.05;110811;1248;22678;-76
2022/02/20 14:50:11;;;;;;;15.80;12.60;;;;;;;7.12;62.23;99565.00;111068;1248;22525;-76
2022/02/20 14:53:24;;;;;;;;;;;;;;;;;;;;;
2022/02/20 14:56:08;;;;;;;20.90;14.80;;;;;;;7.21;62.21;99557.52;111115;1248;22035;-76
2022/02/20 14:59:02;;;;;;;16.00;12.90;;;;;;;7.28;62.36;99550.80;111278;1247;23671;-77
2022/02/20 15:01:35;;;;;;;16.90;11.70;;;;;;;7.37;62.42;99543.82;111171;1248;22078;-76
2022/02/20 15:04:08;;;;;;;21.60;15.90;;;;;;;7.43;62.21;99540.42;111022;1251;22962;-75
2022/02/20 15:06:45;;;;;;;19.50;14.40;;;;;;;7.42;61.94;99538.77;111086;1248;23667;-76
2022/02/20 15:09:28;;;;;;;20.70;16.70;;;;;;;7.41;61.92;99531.54;111008;1248;22847;-76
2022/02/20 15:12:05;;;;;;;20.40;16.70;;;;;;;7.39;61.96;99524.86;111068;1248;22190;-76
2022/02/20 15:14:47;;;;;;;33.80;27.00;;;;;;;7.39;62.03;99523.46;111506;1242;21959;-77
2022/02/20 15:17:28;;;;;;;17.00;15.20;;;;;;;7.38;61.85;99517.52;111042;1248;21981;-76
2022/02/20 15:20:10;;;;;;;18.10;14.60;;;;;;;7.36;61.82;99516.64;111065;1250;21979;-76
2022/02/20 15:22:45;;;;;;;16.50;13.30;;;;;;;7.36;61.81;99513.71;111085;1245;21977;-76
2022/02/20 15:25:29;;;;;;;23.70;17.50;;;;;;;7.39;61.91;99511.11;111566;1243;22985;-76
2022/02/20 15:28:17;;;;;;;22.70;18.60;;;;;;;7.37;61.85;99505.16;111546;1244;23045;-76
2022/02/20 15:30:57;;;;;;;;;;;;;;;;;;;;;
2022/02/20 15:33:35;;;;;;;23.30;16.40;;;;;;;7.32;62.00;99490.87;111270;1244;22228;-76
2022/02/20 15:36:05;;;;;;;24.60;17.70;;;;;;;7.28;61.98;99482.98;111020;1246;22019;-76
2022/02/20 15:38:50;;;;;;;24.90;17.90;;;;;;;7.25;62.05;99469.95;111296;1245;22419;-76
2022/02/20 15:41:28;;;;;;;32.60;27.60;;;;;;;7.20;62.13;99463.92;111482;1245;21958;-77
2022/02/20 15:44:00;;;;;;;25.70;19.20;;;;;;;7.18;62.30;99458.73;111511;1245;21959;-77
2022/02/20 15:46:36;;;;;;;20.90;15.20;;;;;;;7.15;62.29;99450.77;111298;1244;23034;-77
2022/02/20 15:49:11;;;;;;;24.60;17.10;;;;;;;7.13;62.43;99445.61;111092;1248;23028;-77
2022/02/20 15:51:58;;;;;;;17.20;13.50;;;;;;;7.12;62.56;99439.80;110960;1247;23036;-77
2022/02/20 15:54:34;;;;;;;24.50;15.60;;;;;;;7.11;62.57;99439.04;111297;1242;23585;-77
2022/02/20 15:57:22;;;;;;;21.10;14.40;;;;;;;7.11;62.78;99431.96;111504;1242;21951;-76
2022/02/20 16:00:32;;;;;;;26.60;19.60;;;;;;;7.09;62.73;99428.73;111579;1243;21956;-76
2022/02/20 16:03:05;;;;;;;27.60;21.20;;;;;;;7.03;62.78;99426.41;110653;1254;23604;-75
2022/02/20 16:05:37;;;;;;;34.80;22.90;;;;;;;7.01;62.94;99421.91;110626;1254;21989;-76
2022/02/20 16:08:17;;;;;;;41.80;28.30;;;;;;;7.00;63.03;99417.13;110897;1250;21975;-75
2022/02/20 16:11:07;;;;;;;28.90;20.00;;;;;;;7.02;63.16;99412.48;110761;1250;22764;-77
2022/02/20 16:14:19;;;;;;;39.20;24.70;;;;;;;7.02;63.26;99409.50;111018;1251;23724;-77
2022/02/20 16:17:23;;;;;;;;;;;;;;;;;;;;;
2022/02/20 16:20:01;;;;;;;27.90;19.20;;;;;;;7.00;63.45;99408.89;110675;1251;22037;-77
2022/02/20 16:22:34;;;;;;;21.80;15.10;;;;;;;7.00;63.62;99408.33;110968;1250;23644;-77
2022/02/20 16:25:04;;;;;;;21.40;14.80;;;;;;;6.99;63.65;99405.61;110457;1256;22023;-77
2022/02/20 16:27:52;;;;;;;;;;;;;;;;;;;;;
2022/02/20 16:30:38;;;;;;;23.10;16.70;;;;;;;6.87;63.68;99404.64;110774;1251;21986;-77
2022/02/20 16:33:19;;;;;;;26.40;18.00;;;;;;;6.82;63.90;99401.02;110854;1245;23041;-76
2022/02/20 16:35:50;;;;;;;22.10;16.90;;;;;;;6.80;64.15;99400.48;111596;1244;22376;-76
2022/02/20 16:38:24;;;;;;;25.30;17.60;;;;;;;6.76;64.18;99398.89;111228;1245;21968;-77
2022/02/20 16:40:58;;;;;;;23.40;15.80;;;;;;;6.72;64.44;99402.97;111003;1250;22638;-77
2022/02/20 16:43:37;;;;;;;21.60;14.30;;;;;;;6.74;64.80;99404.18;111135;1245;22370;-76
2022/02/20 16:46:10;;;;;;;22.60;15.70;;;;;;;6.78;65.00;99399.50;111494;1244;21975;-76
2022/02/20 16:48:53;;;;;;;18.10;13.50;;;;;;;6.82;65.15;99393.16;111579;1242;21976;-77
2022/02/20 16:51:36;;;;;;;17.80;11.70;;;;;;;6.84;65.35;99392.38;112099;1236;22429;-76
2022/02/20 16:54:07;;;;;;;17.40;13.00;;;;;;;6.83;65.35;99387.06;112336;1236;21946;-76
2022/02/20 16:56:37;;;;;;;17.20;13.10;;;;;;;6.78;65.34;99380.98;112349;1238;21946;-77
2022/02/20 16:59:09;;;;;;;18.30;11.70;;;;;;;6.76;65.69;99376.12;112259;1232;22959;-76
2022/02/20 17:01:46;;;;;;;24.10;16.40;;;;;;;6.75;65.88;99374.65;112807;1230;24341;-76
2022/02/20 17:04:26;;;;;;;26.80;17.10;;;;;;;6.74;66.00;99369.45;111919;1238;23644;-76
2022/02/20 17:07:03;;;;;;;28.00;16.30;;;;;;;6.75;66.24;99363.13;111660;1238;22025;-76
2022/02/20 17:09:38;;;;;;;21.20;14.60;;;;;;;6.74;66.34;99354.98;111882;1239;22994;-77
2022/02/20 17:12:09;;;;;;;20.10;11.40;;;;;;;6.72;66.39;99357.48;111873;1239;22011;-77
2022/02/20 17:14:53;;;;;;;23.70;14.30;;;;;;;6.65;66.52;99354.02;111678;1238;22210;-76
2022/02/20 17:17:32;;;;;;;23.60;14.00;;;;;;;6.59;66.78;99352.77;112041;1238;21951;-76
2022/02/20 17:20:09;;;;;;;23.60;16.80;;;;;;;6.59;67.28;99350.69;111928;1239;23755;-77
2022/02/20 17:22:53;;;;;;;20.10;13.60;;;;;;;6.57;67.43;99347.73;111595;1238;23007;-76
2022/02/20 17:25:23;;;;;;;20.90;13.70;;;;;;;6.56;67.71;99345.58;111991;1239;22130;-76
2022/02/20 17:28:00;;;;;;;21.50;12.70;;;;;;;6.55;67.94;99341.45;111541;1245;22384;-76
2022/02/20 17:30:46;;;;;;;18.10;10.80;;;;;;;6.53;67.96;99331.67;111497;1244;22005;-76
2022/02/20 17:33:32;;;;;;;15.50;10.20;;;;;;;6.47;68.35;99324.33;111530;1244;21965;-78
2022/02/20 17:36:09;;;;;;;16.30;9.80;;;;;;;6.41;68.65;99320.33;111325;1245;21960;-78
2022/02/20 17:40:01;;;;;;;18.10;11.50;;;;;;;6.35;69.20;99314.10;111547;1245;21958;-78
2022/02/20 17:43:37;;;;;;;19.80;10.60;;;;;;;6.31;69.74;99304.23;112420;1236;21993;-78
2022/02/20 17:46:55;;;;;;;;;;;;;;;;;;;;;
2022/02/20 17:50:17;;;;;;;;;;;;;;;;;;;;;
2022/02/20 17:53:01;;;;;;;20.90;13.80;;;;;;;6.30;70.59;99285.13;112156;1238;21971;-78
2022/02/20 17:55:30;;;;;;;19.80;12.80;;;;;;;6.26;71.04;99281.19;111809;1239;22141;-76
2022/02/20 17:57:59;;;;;;;19.40;11.90;;;;;;;6.19;71.32;99273.16;111272;1247;21960;-75
2022/02/20 18:00:31;;;;;;;20.00;13.80;;;;;;;6.17;71.39;99273.95;111353;1247;21987;-76
2022/02/20 18:03:01;;;;;;;17.20;12.00;;;;;;;6.17;71.57;99269.20;111431;1245;22509;-75
2022/02/20 18:05:35;;;;;;;20.40;12.90;;;;;;;6.14;71.59;99265.95;111081;1245;22419;-76
2022/02/20 18:08:10;;;;;;;21.90;16.20;;;;;;;6.10;71.66;99261.66;111393;1245;22058;-76
2022/02/20 18:10:41;;;;;;;19.80;14.00;;;;;;;6.10;72.05;99262.26;111038;1245;21962;-75
2022/02/20 18:13:11;;;;;;;18.60;13.90;;;;;;;6.10;72.08;99258.59;111007;1247;22491;-76
2022/02/20 18:15:42;;;;;;;16.70;12.80;;;;;;;6.12;72.29;99254.66;111348;1238;24023;-76
2022/02/20 18:18:18;;;;;;;16.70;11.20;;;;;;;6.13;72.29;99252.65;111670;1238;21967;-76
2022/02/20 18:20:57;;;;;;;14.80;8.10;;;;;;;6.15;72.38;99243.33;111798;1241;21959;-75